Airfield :
LOGIN :

Register | Disclaimer

   EN    FR    IT 

 










Legend :    VFR   Marginal VFR   IFR   Intensive IFR   Very Intensive IFR
Visi :
Ceiling :
>= 8 km
>= 3000ft
5 to 8 km
1000 to 3000 ft
1500m to 5 km
500 to 1000 ft
800 to 1500m
200 to 500 ft
< 800m
< 200 ft
Symbols :   Thunderstorms  Fog  Heavy snow  Heavy precipitations  Wind > 20 kt
SIGMETs :     Misc.  Thunderstorms  Icing  Turbulence  Mountain Waves  Volcanic Ashes







- Airport Elevation : 48 ft
- IATA code : PSR


LIBP - Abruzzo Pescara

CURRENT METAR :
  • 160350Z AUTO 22004KT 9999 BKN038/// BKN065/// BKN160/// 19/17 Q1009

EXPIRED METARs :
  • 160250Z AUTO 20005KT 9999 OVC076/// 20/16 Q1010
  • 160150Z AUTO 21004KT 9999 OVC096/// 20/15 Q1010

TAF TAF LIBP
Valid from the 16 at 00:00 until the 17 at 00:00 UTC


152300Z 1600/1624 VRB05KT 9999 SCT025
BECMG 1608/1610 35012KT
TEMPO 1609/1612 4000 TSRA
No reported NOTAMs for that airfield.
2 SIGMETs reported for the Brindisi FIR (LIBB) :
 
Embedded thunderstorms
LIBB SIGMET 2 VALID 160430/160730 LIIB
LIBB BRINDISI FIR EMBD TS FCST WI N4058 E01712 - N3934 E01601 - N3906 E01618 - N3855 E01642 - N3854 E01759 - N4010 E01836 - N4058 E01712 TOP ABV FL300 STNR NC=
Embedded thunderstorms
LIBB SIGMET 1 VALID 160205/160430 LIIB
LIBB BRINDISI FIR EMBD TS FCST WI N4113 E01505 - N4132 E01546 - N4013 E01830 - N3853 E01711 - N3855 E01636 - N3912 E01611 - N4113 E01505 TOP ABV FL300 STNR NC=



MET'MAP, your aeronautical weather chart ! - Copyright ORBIFLY December 2007 - Disclaimer

ORBIFLY MET'MAP TEAM :

Programming & Development : Alexandra Zaïnal
Concept & Development : Baudouin d'Aumeries
Co-Development & Prog : Marc-Olivier Méhu
Technical & hardware support : Manuel Goepfert

Contact : metmap@orbifly.com




SOURCES & CREDITS :

   NOAA